createdAt,value
2019-02-25T08:14:01.997Z,8.03
2019-02-25T08:15:01.974Z,8.09
2019-02-25T08:16:01.985Z,8.06
2019-02-25T08:17:01.994Z,8.13
2019-02-25T08:18:02.016Z,8.10
2019-02-25T08:19:02.021Z,8.25
2019-02-25T08:20:02.041Z,8.28
2019-02-25T08:21:02.051Z,8.28
2019-02-25T08:22:02.062Z,8.43
2019-02-25T08:23:02.075Z,8.43
2019-02-25T08:24:02.087Z,8.61
2019-02-25T08:25:02.106Z,8.76
2019-02-25T08:26:02.135Z,8.85
2019-02-25T08:27:02.133Z,9.06
2019-02-25T08:28:02.157Z,9.17
2019-02-25T08:29:02.164Z,9.26
2019-02-25T08:30:02.204Z,9.44
2019-02-25T08:31:02.196Z,9.37
2019-02-25T08:32:02.220Z,9.53
2019-02-25T08:33:02.226Z,9.48
2019-02-25T08:34:02.256Z,9.77
2019-02-25T08:35:02.259Z,10.02
2019-02-25T08:36:02.296Z,10.34
2019-02-25T08:37:02.803Z,10.86
2019-02-25T08:38:02.299Z,11.69
2019-02-25T08:39:02.353Z,12.11
2019-02-25T08:40:02.348Z,12.66
2019-02-25T08:41:02.346Z,12.91
2019-02-25T08:42:02.364Z,13.24
2019-02-25T08:43:02.381Z,13.48
2019-02-25T08:44:02.448Z,13.43
2019-02-25T08:45:02.419Z,13.62
2019-02-25T08:46:02.430Z,13.76
2019-02-25T08:47:02.448Z,13.91
2019-02-25T08:48:02.887Z,14.11
2019-02-25T08:49:02.476Z,14.27
2019-02-25T08:50:02.486Z,14.35
2019-02-25T08:51:02.511Z,14.48
2019-02-25T08:52:02.532Z,14.48
2019-02-25T08:53:02.543Z,14.57
2019-02-25T08:54:02.563Z,14.83
2019-02-25T08:55:02.578Z,14.93
2019-02-25T08:56:02.587Z,15.07
2019-02-25T08:57:02.599Z,15.19
2019-02-25T08:58:02.632Z,15.25
2019-02-25T08:59:02.633Z,15.49
2019-02-25T09:00:02.657Z,15.56
2019-02-25T09:01:02.666Z,15.74
2019-02-25T09:02:02.686Z,15.93
2019-02-25T09:03:02.718Z,16.03
2019-02-25T09:04:02.744Z,16.17
2019-02-25T09:05:02.731Z,16.36
2019-02-25T09:06:02.773Z,16.42
2019-02-25T09:07:02.768Z,16.52
2019-02-25T09:08:02.786Z,16.66
2019-02-25T09:09:02.805Z,16.77
2019-02-25T09:10:02.815Z,16.96
2019-02-25T09:11:02.831Z,17.10
2019-02-25T09:12:02.849Z,17.28
2019-02-25T09:13:02.862Z,17.43
2019-02-25T09:14:02.889Z,17.66
2019-02-25T09:15:02.900Z,17.80
2019-02-25T09:16:02.918Z,17.89
2019-02-25T09:17:02.947Z,17.92
2019-02-25T09:18:02.964Z,18.02
2019-02-25T09:19:02.971Z,18.09
2019-02-25T09:20:02.988Z,18.21
2019-02-25T09:21:03.013Z,18.38
2019-02-25T09:22:03.017Z,18.51
2019-02-25T09:23:03.035Z,18.66
2019-02-25T09:24:03.128Z,18.66
2019-02-25T09:25:03.064Z,18.82
2019-02-25T09:26:03.089Z,18.94
2019-02-25T09:27:03.098Z,19.09
2019-02-25T09:28:03.137Z,19.27
2019-02-25T09:29:03.141Z,19.25
2019-02-25T09:30:03.157Z,19.34
2019-02-25T09:31:03.185Z,19.32
2019-02-25T09:32:03.190Z,19.46
2019-02-25T09:33:03.217Z,19.65
2019-02-25T09:34:03.230Z,19.75
2019-02-25T09:35:03.241Z,19.78
2019-02-25T09:36:03.291Z,19.87
2019-02-25T09:37:03.274Z,20.04
2019-02-25T09:38:03.294Z,19.68
2019-02-25T09:39:03.323Z,19.57
2019-02-25T09:40:03.331Z,19.85
2019-02-25T09:41:03.346Z,20.10
2019-02-25T09:42:03.368Z,20.33
2019-02-25T09:43:03.386Z,20.46
2019-02-25T09:44:03.401Z,20.73
2019-02-25T09:45:03.420Z,20.91
2019-02-25T09:46:03.435Z,21.03
2019-02-25T09:47:05.132Z,21.37
2019-02-25T09:48:03.471Z,21.53
2019-02-25T09:49:03.487Z,21.79
2019-02-25T09:50:03.509Z,21.81
2019-02-25T09:51:03.532Z,21.89
2019-02-25T09:52:03.537Z,21.83
2019-02-25T09:53:03.556Z,21.89
2019-02-25T09:54:03.581Z,21.96
2019-02-25T09:55:03.591Z,22.21
2019-02-25T09:56:03.614Z,22.36
2019-02-25T09:57:03.633Z,21.74
2019-02-25T09:58:03.656Z,21.85
2019-02-25T09:59:03.666Z,22.06
2019-02-25T10:00:03.683Z,22.29
2019-02-25T10:01:03.703Z,22.48
2019-02-25T10:02:03.752Z,22.72
2019-02-25T10:03:03.738Z,23.01
2019-02-25T10:04:03.782Z,23.26
2019-02-25T10:05:03.780Z,23.56
2019-02-25T10:06:03.790Z,23.69
2019-02-25T10:07:03.812Z,23.89
2019-02-25T10:08:03.837Z,23.96
2019-02-25T10:09:03.853Z,24.02
2019-02-25T10:10:03.866Z,24.14
2019-02-25T10:11:03.882Z,24.27
2019-02-25T10:12:03.898Z,24.42
2019-02-25T10:13:03.920Z,24.44
2019-02-25T10:14:03.938Z,24.64
2019-02-25T10:15:05.126Z,24.74
2019-02-25T10:16:03.974Z,24.80
2019-02-25T10:17:03.998Z,24.92
2019-02-25T10:18:04.018Z,25.04
2019-02-25T10:19:04.029Z,25.08
2019-02-25T10:20:04.072Z,25.22
2019-02-25T10:21:04.071Z,25.22
2019-02-25T10:22:04.086Z,25.49
2019-02-25T10:23:04.108Z,25.39
2019-02-25T10:24:04.136Z,25.46
2019-02-25T10:25:04.150Z,25.66
2019-02-25T10:26:04.161Z,25.83
2019-02-25T10:27:04.193Z,25.96
2019-02-25T10:28:04.215Z,26.24
2019-02-25T10:29:04.218Z,26.41
2019-02-25T10:30:04.277Z,26.39
2019-02-25T10:31:04.256Z,26.49
2019-02-25T10:32:04.893Z,26.73
2019-02-25T10:33:04.291Z,26.87
2019-02-25T10:34:04.311Z,26.81
2019-02-25T10:35:04.329Z,26.96
2019-02-25T10:36:04.351Z,27.08
2019-02-25T10:37:04.368Z,27.18
2019-02-25T10:38:04.390Z,27.23
2019-02-25T10:39:04.410Z,27.45
2019-02-25T10:40:04.423Z,27.55
2019-02-25T10:41:04.443Z,27.62
2019-02-25T10:42:04.462Z,27.61
2019-02-25T10:43:04.487Z,27.77
2019-02-25T10:44:06.351Z,27.96
2019-02-25T10:45:05.206Z,28.20
2019-02-25T10:46:04.539Z,28.61
2019-02-25T10:47:04.558Z,29.00
2019-02-25T10:48:04.580Z,29.29
2019-02-25T10:49:11.126Z,29.39
2019-02-25T10:50:05.353Z,29.42
2019-02-25T10:51:05.266Z,29.45
2019-02-25T10:52:06.561Z,29.45
2019-02-25T10:53:04.675Z,28.79
2019-02-25T10:54:04.690Z,28.85
2019-02-25T10:55:04.710Z,28.82
2019-02-25T10:56:04.740Z,29.12
2019-02-25T10:57:04.747Z,29.23
2019-02-25T10:58:04.778Z,29.08
2019-02-25T10:59:06.239Z,29.37
2019-02-25T11:00:05.547Z,29.60
2019-02-25T11:01:04.833Z,29.63
2019-02-25T11:02:04.847Z,29.78
2019-02-25T11:03:04.872Z,29.79
2019-02-25T11:04:04.891Z,30.19
2019-02-25T11:05:04.908Z,30.48
2019-02-25T11:06:04.931Z,30.78
2019-02-25T11:07:05.693Z,30.78
2019-02-25T11:08:06.944Z,30.85
2019-02-25T11:09:06.876Z,30.90
2019-02-25T11:10:05.004Z,31.03
2019-02-25T11:11:05.034Z,31.20
2019-02-25T11:12:05.083Z,31.09
2019-02-25T11:13:05.056Z,30.94
2019-02-25T11:14:06.720Z,30.82
2019-02-25T11:15:07.218Z,30.68
2019-02-25T11:16:05.127Z,30.34
2019-02-25T11:17:05.152Z,30.56
2019-02-25T11:18:05.166Z,30.90
2019-02-25T11:19:05.189Z,30.83
2019-02-25T11:20:05.682Z,30.98
2019-02-25T11:21:06.131Z,31.05
2019-02-25T11:22:05.963Z,30.97
2019-02-25T11:23:05.262Z,30.83
2019-02-25T11:24:05.290Z,31.37
2019-02-25T11:25:05.302Z,31.57
2019-02-25T11:26:05.323Z,31.57
2019-02-25T11:27:07.191Z,31.79
2019-02-25T11:28:07.067Z,31.87
2019-02-25T11:29:06.074Z,32.19
2019-02-25T11:30:05.414Z,31.94
2019-02-25T11:31:05.420Z,31.92
2019-02-25T11:32:05.436Z,32.27
2019-02-25T11:33:05.464Z,32.50
2019-02-25T11:34:06.446Z,32.56
2019-02-25T11:35:06.380Z,32.59
2019-02-25T11:36:05.519Z,32.54
2019-02-25T11:37:05.533Z,32.54
2019-02-25T11:38:05.562Z,32.44
2019-02-25T11:39:06.929Z,31.56
2019-02-25T11:40:05.605Z,31.04
2019-02-25T11:41:07.164Z,30.56
2019-02-25T11:42:07.852Z,29.70
2019-02-25T11:43:05.660Z,29.81
2019-02-25T11:44:05.678Z,29.94
2019-02-25T11:45:05.708Z,30.38
2019-02-25T11:46:05.729Z,30.86
2019-02-25T11:47:05.741Z,30.68
2019-02-25T11:48:05.766Z,31.07
2019-02-25T11:49:05.780Z,31.45
2019-02-25T11:50:05.801Z,31.90
2019-02-25T11:51:05.821Z,32.07
2019-02-25T11:52:05.845Z,32.14
2019-02-25T11:53:05.863Z,31.85
2019-02-25T11:54:05.891Z,30.67
2019-02-25T11:55:05.899Z,28.89
2019-02-25T11:56:05.925Z,28.77
2019-02-25T11:57:05.942Z,28.88
2019-02-25T11:58:05.961Z,29.66
2019-02-25T11:59:05.991Z,30.81
2019-02-25T12:00:06.006Z,31.59
2019-02-25T12:01:06.027Z,32.10
2019-02-25T12:02:06.067Z,32.13
2019-02-25T12:03:06.065Z,32.39
2019-02-25T12:04:06.089Z,32.68
2019-02-25T12:05:06.102Z,32.88
2019-02-25T12:06:06.125Z,32.90
2019-02-25T12:07:06.164Z,33.06
2019-02-25T12:08:06.168Z,33.49
2019-02-25T12:09:06.193Z,33.56
2019-02-25T12:10:06.212Z,33.66
2019-02-25T12:11:06.229Z,33.68
2019-02-25T12:12:06.263Z,33.70
2019-02-25T12:13:06.285Z,33.71
2019-02-25T12:14:06.292Z,33.71
2019-02-25T12:15:06.315Z,33.56
2019-02-25T12:16:06.342Z,33.28
2019-02-25T12:17:06.354Z,33.20
2019-02-25T12:18:06.374Z,33.09
2019-02-25T12:19:06.394Z,33.21
2019-02-25T12:20:06.417Z,33.26
2019-02-25T12:21:06.435Z,33.50
2019-02-25T12:22:06.462Z,33.60
2019-02-25T12:23:06.489Z,33.68
2019-02-25T12:24:06.497Z,33.53
2019-02-25T12:25:06.517Z,32.22
2019-02-25T12:26:06.537Z,31.05
2019-02-25T12:27:06.556Z,29.64
2019-02-25T12:28:06.576Z,29.52
2019-02-25T12:29:10.845Z,29.36
2019-02-25T12:30:06.618Z,29.36
2019-02-25T12:31:06.636Z,28.94
2019-02-25T12:32:06.660Z,28.61
2019-02-25T12:33:06.672Z,27.90
2019-02-25T12:34:06.695Z,27.30
2019-02-25T12:35:06.731Z,26.73
2019-02-25T12:36:06.742Z,26.98
2019-02-25T12:37:06.758Z,27.86
2019-02-25T12:38:06.784Z,28.64
2019-02-25T12:39:06.810Z,28.64
2019-02-25T12:40:06.820Z,27.61
2019-02-25T12:41:06.837Z,27.30
2019-02-25T12:42:06.857Z,27.99
2019-02-25T12:43:06.871Z,29.39
2019-02-25T12:44:06.897Z,30.68
2019-02-25T12:45:06.912Z,31.65
2019-02-25T12:46:06.943Z,32.35
2019-02-25T12:47:06.957Z,33.03
2019-02-25T12:48:06.981Z,33.56
2019-02-25T12:49:06.995Z,33.99
2019-02-25T12:50:07.007Z,34.34
2019-02-25T12:51:07.040Z,34.50
2019-02-25T12:52:07.053Z,34.43
2019-02-25T12:53:07.077Z,34.26
2019-02-25T12:54:07.111Z,34.40
2019-02-25T12:55:07.124Z,34.46
2019-02-25T12:56:07.139Z,34.86
2019-02-25T12:57:07.156Z,34.93
2019-02-25T12:58:07.184Z,34.46
2019-02-25T12:59:07.200Z,32.49
2019-02-25T13:00:07.222Z,31.76
2019-02-25T13:01:07.237Z,31.41
2019-02-25T13:02:07.274Z,31.92
2019-02-25T13:03:07.278Z,32.61
2019-02-25T13:04:07.299Z,33.20
2019-02-25T13:05:07.321Z,33.60
2019-02-25T13:06:07.339Z,34.15
2019-02-25T13:07:07.350Z,34.26
2019-02-25T13:08:07.383Z,34.34
2019-02-25T13:09:07.405Z,34.40
2019-02-25T13:10:07.415Z,34.63
2019-02-25T13:11:07.575Z,34.72
2019-02-25T13:12:07.472Z,34.64
2019-02-25T13:13:07.481Z,34.90
2019-02-25T13:14:07.513Z,35.24
2019-02-25T13:15:13.427Z,35.28
2019-02-25T13:16:07.548Z,35.10
2019-02-25T13:17:07.565Z,34.99
2019-02-25T13:18:07.591Z,35.10
2019-02-25T13:19:07.600Z,35.03
2019-02-25T13:20:07.626Z,34.94
2019-02-25T13:21:07.647Z,35.02
2019-02-25T13:22:07.718Z,34.76
2019-02-25T13:23:07.690Z,34.78
2019-02-25T13:24:09.849Z,34.64
2019-02-25T13:25:08.582Z,34.73
2019-02-25T13:26:07.863Z,34.81
2019-02-25T13:27:08.408Z,33.93
2019-02-25T13:28:07.802Z,33.00
2019-02-25T13:29:07.811Z,33.50
2019-02-25T13:30:07.837Z,33.92
2019-02-25T13:31:08.464Z,34.55
2019-02-25T13:32:07.869Z,34.94
2019-02-25T13:33:07.891Z,35.03
2019-02-25T13:34:07.923Z,34.86
2019-02-25T13:35:07.933Z,34.83
2019-02-25T13:36:07.973Z,34.83
2019-02-25T13:37:07.972Z,34.67
2019-02-25T13:38:07.994Z,34.58
2019-02-25T13:39:08.018Z,34.45
2019-02-25T13:40:08.057Z,34.26
2019-02-25T13:41:08.058Z,34.27
2019-02-25T13:42:08.075Z,34.45
2019-02-25T13:43:08.099Z,34.42
2019-02-25T13:44:08.117Z,34.65
2019-02-25T13:45:08.148Z,34.88
2019-02-25T13:46:08.155Z,34.61
2019-02-25T13:47:08.174Z,34.40
2019-02-25T13:48:08.196Z,34.14
2019-02-25T13:49:08.213Z,33.84
2019-02-25T13:50:08.232Z,33.79
2019-02-25T13:51:08.266Z,33.79
2019-02-25T13:52:08.269Z,33.99
2019-02-25T13:53:08.291Z,33.97
2019-02-25T13:54:08.306Z,33.62
2019-02-25T13:55:08.330Z,33.55
2019-02-25T13:56:08.349Z,33.55
2019-02-25T13:57:08.363Z,33.57
2019-02-25T13:58:08.389Z,33.52
2019-02-25T13:59:08.402Z,33.65
2019-02-25T14:00:08.423Z,33.78
2019-02-25T14:01:08.441Z,33.84
2019-02-25T14:02:08.471Z,33.84
2019-02-25T14:03:08.480Z,34.14
2019-02-25T14:04:08.501Z,34.15
2019-02-25T14:05:08.521Z,34.18
2019-02-25T14:06:08.540Z,34.23
2019-02-25T14:07:08.558Z,33.92
2019-02-25T14:08:08.565Z,33.47
2019-02-25T14:09:08.611Z,33.05
2019-02-25T14:10:08.615Z,32.91
2019-02-25T14:11:08.634Z,33.20
2019-02-25T14:12:08.658Z,33.41
2019-02-25T14:13:08.667Z,33.59
2019-02-25T14:14:08.734Z,33.97
2019-02-25T14:15:08.702Z,34.53
2019-02-25T14:16:08.727Z,34.99
2019-02-25T14:17:08.742Z,35.39
2019-02-25T14:18:08.755Z,35.50
2019-02-25T14:19:08.794Z,35.47
2019-02-25T14:20:08.804Z,35.55
2019-02-25T14:21:08.818Z,35.64
2019-02-25T14:22:08.838Z,35.71
2019-02-25T14:23:08.855Z,35.64
2019-02-25T14:24:08.880Z,35.73
2019-02-25T14:25:08.893Z,35.56
2019-02-25T14:26:08.915Z,35.32
2019-02-25T14:27:08.986Z,35.47
2019-02-25T14:28:08.954Z,35.64
2019-02-25T14:29:08.976Z,35.52
2019-02-25T14:30:09.375Z,35.77
2019-02-25T14:31:09.012Z,35.68
2019-02-25T14:32:10.934Z,35.39
2019-02-25T14:33:09.047Z,35.05
2019-02-25T14:34:09.064Z,34.71
2019-02-25T14:35:09.094Z,34.40
2019-02-25T14:36:10.612Z,34.15
2019-02-25T14:37:09.126Z,33.92
2019-02-25T14:38:10.872Z,33.57
2019-02-25T14:39:09.164Z,33.35
2019-02-25T14:40:11.886Z,33.52
2019-02-25T14:41:11.189Z,33.96
2019-02-25T14:42:09.414Z,33.99
2019-02-25T14:43:12.696Z,34.24
2019-02-25T14:44:09.259Z,34.28
2019-02-25T14:45:09.580Z,33.50
2019-02-25T14:46:11.903Z,32.68
2019-02-25T14:47:19.547Z,32.36
2019-02-25T14:48:10.800Z,32.35
2019-02-25T14:49:09.352Z,32.71
2019-02-25T14:50:09.372Z,33.26
2019-02-25T14:51:09.384Z,33.59
2019-02-25T14:52:09.405Z,33.63
2019-02-25T14:53:11.557Z,33.60
2019-02-25T14:54:09.452Z,33.56
2019-02-25T14:55:11.286Z,33.55
2019-02-25T14:56:09.478Z,33.35
2019-02-25T14:57:09.490Z,33.20
2019-02-25T14:59:12.668Z,32.43
2019-02-25T15:00:09.559Z,32.31
2019-02-25T15:01:09.577Z,32.32
2019-02-25T15:02:11.137Z,32.31
2019-02-25T15:03:09.601Z,32.49
2019-02-25T15:04:09.616Z,32.51
2019-02-25T15:05:10.836Z,32.43
2019-02-25T15:06:09.653Z,32.41
2019-02-25T15:07:10.860Z,32.41
2019-02-25T15:08:09.690Z,32.43
2019-02-25T15:09:11.935Z,32.43
2019-02-25T15:10:11.037Z,32.81
2019-02-25T15:11:11.342Z,32.96
2019-02-25T15:12:11.682Z,33.11
2019-02-25T15:13:10.579Z,32.91
2019-02-25T15:14:10.652Z,33.06
2019-02-25T15:15:09.826Z,33.05
2019-02-25T15:16:09.835Z,33.26
2019-02-25T15:17:10.542Z,33.18
2019-02-25T15:18:09.880Z,33.12
2019-02-25T15:19:09.882Z,32.83
2019-02-25T15:20:10.452Z,32.59
2019-02-25T15:21:11.299Z,32.36
2019-02-25T15:22:09.939Z,32.25
2019-02-25T15:23:12.526Z,32.59
2019-02-25T15:24:10.450Z,32.72
2019-02-25T15:25:09.985Z,32.84
2019-02-25T15:26:10.016Z,32.93
2019-02-25T15:27:11.033Z,33.07
2019-02-25T15:28:11.969Z,33.44
2019-02-25T15:29:10.057Z,33.56
2019-02-25T15:30:10.078Z,33.55
2019-02-25T15:31:11.990Z,33.31
2019-02-25T15:32:10.110Z,33.05
2019-02-25T15:33:10.127Z,32.80
2019-02-25T15:34:10.958Z,32.68
2019-02-25T15:35:10.159Z,32.43
2019-02-25T15:36:11.483Z,32.25
2019-02-25T15:37:11.795Z,31.90
2019-02-25T15:38:10.213Z,31.67
2019-02-25T15:39:10.822Z,31.41
2019-02-25T15:40:11.892Z,31.56
2019-02-25T15:41:11.293Z,31.47
2019-02-25T15:42:10.272Z,31.76
2019-02-25T15:43:12.894Z,31.91
2019-02-25T15:44:11.101Z,32.16
2019-02-25T15:45:10.336Z,32.31
2019-02-25T15:46:10.460Z,32.49
2019-02-25T15:47:11.149Z,32.36
2019-02-25T15:48:10.376Z,32.28
2019-02-25T15:49:12.834Z,32.35
2019-02-25T15:50:11.103Z,32.24
2019-02-25T15:51:10.437Z,31.91
2019-02-25T15:52:10.691Z,31.56
2019-02-25T15:53:11.741Z,31.57
2019-02-25T15:54:10.499Z,31.52
2019-02-25T15:55:13.090Z,31.53
2019-02-25T15:56:12.278Z,31.41
2019-02-25T15:57:10.550Z,31.15
2019-02-25T15:58:10.557Z,31.20
2019-02-25T15:59:10.572Z,31.37
2019-02-25T16:00:10.587Z,31.45
2019-02-25T16:01:10.607Z,31.46
2019-02-25T16:02:13.590Z,31.32
2019-02-25T16:03:11.242Z,31.12
2019-02-25T16:04:11.780Z,31.00
2019-02-25T16:05:10.679Z,30.67
2019-02-25T16:06:10.733Z,30.46
2019-02-25T16:07:10.712Z,30.26
2019-02-25T16:08:10.727Z,30.25
2019-02-25T16:09:10.740Z,30.19
2019-02-25T16:10:12.013Z,30.10
2019-02-25T16:11:11.949Z,30.04
2019-02-25T16:12:10.780Z,29.94
2019-02-25T16:13:14.099Z,29.91
2019-02-25T16:14:10.828Z,29.89
2019-02-25T16:15:11.467Z,29.79
2019-02-25T16:16:10.857Z,29.97
2019-02-25T16:17:10.872Z,29.97
2019-02-25T16:18:13.675Z,29.94
2019-02-25T16:19:10.909Z,29.73
2019-02-25T16:20:10.924Z,29.70
2019-02-25T16:21:11.199Z,29.60
2019-02-25T16:22:11.845Z,29.20
2019-02-25T16:23:10.969Z,29.12
2019-02-25T16:24:12.344Z,28.77
2019-02-25T16:25:11.545Z,28.38
2019-02-25T16:26:11.846Z,28.15
2019-02-25T16:27:11.039Z,27.62
2019-02-25T16:28:13.041Z,27.24
2019-02-25T16:29:11.825Z,26.75
2019-02-25T16:30:11.088Z,26.42
2019-02-25T16:31:12.644Z,26.17
2019-02-25T16:32:11.115Z,25.83
2019-02-25T16:33:12.646Z,25.41
2019-02-25T16:34:12.053Z,25.08
2019-02-25T16:35:11.164Z,24.87
2019-02-25T16:36:11.176Z,24.66
2019-02-25T16:37:12.172Z,24.52
2019-02-25T16:38:11.215Z,24.31
2019-02-25T16:39:11.222Z,24.26
2019-02-25T16:40:11.242Z,24.31
2019-02-25T16:41:11.269Z,24.37
2019-02-25T16:42:11.268Z,24.39
2019-02-25T16:43:12.759Z,24.34
2019-02-25T16:44:11.306Z,23.97
2019-02-25T16:45:11.823Z,23.71
2019-02-25T16:46:14.024Z,23.41
2019-02-25T16:47:11.865Z,23.12
2019-02-25T16:48:11.400Z,22.89
2019-02-25T16:49:11.389Z,22.54
2019-02-25T16:50:11.950Z,22.36
2019-02-25T16:51:12.574Z,22.26
2019-02-25T16:52:11.419Z,22.06
2019-02-25T16:53:14.924Z,21.94
2019-02-25T16:54:13.391Z,21.82
2019-02-25T16:55:11.450Z,21.28
2019-02-25T16:56:11.918Z,20.88
2019-02-25T16:57:11.513Z,20.63
2019-02-25T16:58:13.306Z,20.33
2019-02-25T16:59:13.312Z,20.16
2019-02-25T17:00:11.534Z,20.08
2019-02-25T17:01:12.651Z,20.13
2019-02-25T17:02:14.096Z,20.16
2019-02-25T17:03:13.646Z,20.08
2019-02-25T17:04:12.107Z,20.07
2019-02-25T17:05:11.581Z,20.10
2019-02-25T17:06:13.787Z,20.16
2019-02-25T17:07:12.182Z,20.12
2019-02-25T17:08:12.624Z,20.05
2019-02-25T17:09:12.377Z,20.10
2019-02-25T17:10:11.656Z,19.85
2019-02-25T17:11:12.902Z,19.90
2019-02-25T17:12:11.690Z,19.80
2019-02-25T17:13:14.342Z,19.83
2019-02-25T17:14:12.601Z,19.65
2019-02-25T17:15:11.710Z,19.60
2019-02-25T17:16:18.202Z,19.68
2019-02-25T17:17:11.734Z,19.58
2019-02-25T17:18:15.206Z,19.58
2019-02-25T17:19:11.754Z,19.45
2019-02-25T17:20:13.081Z,19.34
2019-02-25T17:21:11.776Z,19.25
2019-02-25T17:22:11.809Z,19.07
2019-02-25T17:23:11.811Z,18.94
2019-02-25T17:24:11.820Z,18.90
2019-02-25T17:25:12.082Z,18.59
2019-02-25T17:26:12.583Z,18.50
2019-02-25T17:27:12.422Z,18.39
2019-02-25T17:28:14.677Z,18.32
2019-02-25T17:29:11.877Z,18.09
2019-02-25T17:30:13.156Z,17.77
2019-02-25T17:31:13.789Z,17.42
2019-02-25T17:32:11.926Z,17.47
2019-02-25T17:33:12.221Z,17.51
2019-02-25T17:34:12.671Z,17.45
2019-02-25T17:35:11.951Z,17.49
2019-02-25T17:36:12.413Z,17.47
2019-02-25T17:37:12.588Z,17.40
2019-02-25T17:38:11.989Z,17.38
2019-02-25T17:39:12.936Z,17.38
2019-02-25T17:40:13.163Z,17.14
2019-02-25T17:41:13.178Z,16.91
2019-02-25T17:42:12.026Z,16.70
2019-02-25T17:43:13.942Z,16.73
2019-02-25T17:44:12.045Z,16.78
2019-02-25T17:45:12.062Z,16.91
2019-02-25T17:46:13.975Z,17.10
2019-02-25T17:47:14.450Z,17.17
2019-02-25T17:48:13.681Z,17.18
2019-02-25T17:49:12.778Z,17.28
2019-02-25T17:50:12.106Z,17.33
2019-02-25T17:51:12.116Z,17.39
2019-02-25T17:52:13.953Z,17.54
2019-02-25T17:53:12.143Z,17.66
2019-02-25T17:54:12.870Z,17.62
2019-02-25T17:55:12.824Z,17.51
2019-02-25T17:56:12.178Z,17.57
2019-02-25T17:57:13.731Z,17.63
2019-02-25T17:58:12.871Z,17.71
2019-02-25T17:59:12.209Z,17.57
2019-02-25T18:00:13.311Z,17.51
2019-02-25T18:01:12.551Z,17.47
2019-02-25T18:02:12.705Z,17.43
2019-02-25T18:03:12.260Z,17.42
2019-02-25T18:04:12.263Z,17.38
2019-02-25T18:05:14.117Z,17.39
2019-02-25T18:06:12.336Z,17.53
2019-02-25T18:07:12.388Z,17.42
2019-02-25T18:08:13.360Z,17.30
2019-02-25T18:09:14.273Z,17.28
2019-02-25T18:10:12.331Z,17.18
2019-02-25T18:11:13.581Z,17.20
2019-02-25T18:12:12.341Z,17.12
2019-02-25T18:13:12.369Z,17.14
2019-02-25T18:14:13.325Z,17.14
2019-02-25T18:15:12.425Z,16.98
2019-02-25T18:16:14.304Z,16.90
2019-02-25T18:17:14.862Z,16.63
2019-02-25T18:18:14.731Z,16.60
2019-02-25T18:19:13.915Z,16.55
2019-02-25T18:20:12.431Z,16.32
2019-02-25T18:21:12.440Z,16.16
2019-02-25T18:22:13.741Z,16.04
2019-02-25T18:23:12.463Z,16.03
2019-02-25T18:24:12.983Z,15.96
2019-02-25T18:25:12.485Z,15.95
2019-02-25T18:26:14.837Z,15.68
2019-02-25T18:27:12.501Z,15.80
2019-02-25T18:28:12.773Z,15.55
2019-02-25T18:29:15.670Z,15.58
2019-02-25T18:30:12.530Z,15.40
2019-02-25T18:31:13.496Z,15.35
2019-02-25T18:32:12.559Z,15.33
2019-02-25T18:33:12.564Z,15.19
2019-02-25T18:34:13.118Z,15.19
2019-02-25T18:35:14.216Z,15.03
2019-02-25T18:36:12.598Z,15.05
2019-02-25T18:37:13.484Z,15.12
2019-02-25T18:38:12.636Z,15.00
2019-02-25T18:39:12.630Z,14.87
2019-02-25T18:40:13.944Z,14.83
2019-02-25T18:41:13.133Z,14.74
2019-02-25T18:42:13.779Z,14.79
2019-02-25T18:43:12.655Z,14.79
2019-02-25T18:44:13.519Z,14.85
2019-02-25T18:45:13.639Z,14.82
2019-02-25T18:46:12.709Z,14.79
2019-02-25T18:47:12.716Z,14.85
2019-02-25T18:48:12.726Z,14.98
2019-02-25T18:49:13.761Z,14.97
2019-02-25T18:50:15.184Z,14.80
2019-02-25T18:51:12.741Z,14.61
2019-02-25T18:52:12.746Z,14.56
2019-02-25T18:59:57.067Z,14.57
2019-02-25T19:00:57.132Z,14.53
2019-02-25T19:02:48.876Z,14.52
2019-02-25T19:03:50.465Z,14.45
2019-02-25T19:04:48.889Z,14.48
2019-02-25T19:05:49.431Z,14.34
2019-02-25T19:06:48.898Z,14.38
2019-02-25T19:07:51.194Z,14.29
2019-02-25T19:08:49.385Z,14.24
2019-02-25T19:09:49.235Z,14.27
2019-02-25T19:10:51.157Z,14.29
2019-02-25T19:11:49.549Z,14.21
2019-02-25T19:12:49.713Z,14.34
2019-02-25T19:13:49.778Z,14.27
2019-02-25T19:14:51.101Z,14.20
2019-02-25T19:15:50.792Z,14.19
2019-02-25T19:16:48.997Z,14.21
2019-02-25T19:17:50.135Z,14.06
2019-02-25T19:18:49.401Z,14.08
2019-02-25T19:19:51.538Z,13.99
2019-02-25T19:20:49.038Z,13.93
2019-02-25T19:21:50.046Z,14.02
2019-02-25T19:22:49.058Z,13.96
2019-02-25T19:23:49.069Z,13.96
2019-02-25T19:24:50.759Z,13.79
2019-02-25T19:25:49.096Z,13.79
2019-02-25T19:26:49.094Z,13.69
2019-02-25T19:27:50.047Z,13.72
2019-02-25T19:28:50.128Z,13.79
2019-02-25T19:29:49.392Z,13.65
2019-02-25T19:30:50.645Z,13.65
2019-02-25T19:31:49.138Z,13.72
2019-02-25T19:32:49.148Z,13.63
2019-02-25T19:33:49.152Z,13.63
2019-02-25T19:34:49.165Z,13.73
2019-02-25T19:35:49.276Z,13.65
2019-02-25T19:36:49.312Z,13.68
2019-02-25T19:37:49.203Z,13.76
2019-02-25T19:38:50.256Z,13.81
2019-02-25T19:39:50.619Z,13.86
2019-02-25T19:40:52.727Z,13.91
2019-02-25T19:41:49.648Z,13.91
2019-02-25T19:42:51.353Z,13.87
2019-02-25T19:43:58.670Z,13.94
2019-02-25T19:44:49.254Z,14.01
2019-02-25T19:45:49.284Z,14.01
2019-02-25T19:46:51.267Z,13.93
2019-02-25T19:47:49.281Z,13.93
2019-02-25T19:48:49.782Z,13.90
2019-02-25T19:49:49.309Z,13.94
2019-02-25T19:50:51.416Z,13.96
2019-02-25T19:51:50.709Z,13.93
2019-02-25T19:52:49.330Z,13.84
2019-02-25T19:53:49.341Z,13.73
2019-02-25T19:54:50.718Z,13.51
2019-02-25T19:55:51.299Z,13.61
2019-02-25T19:56:51.461Z,13.50
2019-02-25T19:57:49.371Z,13.44
2019-02-25T19:58:49.380Z,13.21
2019-02-25T19:59:50.567Z,13.25
2019-02-25T20:00:52.997Z,13.12
2019-02-25T20:01:49.406Z,13.27
2019-02-25T20:02:49.425Z,13.17
2019-02-25T20:03:49.431Z,13.25
2019-02-25T20:04:50.167Z,13.36
2019-02-25T20:05:51.379Z,13.36
2019-02-25T20:06:51.202Z,13.36
2019-02-25T20:07:49.462Z,13.39
2019-02-25T20:08:51.089Z,13.54
2019-02-25T20:09:49.477Z,13.54
2019-02-25T20:10:49.476Z,13.59
2019-02-25T20:11:49.497Z,13.57
2019-02-25T20:12:50.930Z,13.48
2019-02-25T20:13:49.509Z,13.50
2019-02-25T20:14:49.515Z,13.48
2019-02-25T20:15:51.124Z,13.39
2019-02-25T20:16:49.537Z,13.32
2019-02-25T20:17:51.140Z,13.38
2019-02-25T20:18:49.555Z,13.39
2019-02-25T20:19:50.126Z,13.17
2019-02-25T20:20:49.570Z,13.24
2019-02-25T20:21:50.713Z,13.12
2019-02-25T20:22:49.590Z,13.07
2019-02-25T20:23:51.297Z,12.99
2019-02-25T20:24:50.709Z,13.12
2019-02-25T20:25:51.129Z,12.87
2019-02-25T20:26:52.648Z,12.59
2019-02-25T20:27:50.883Z,12.29
2019-02-25T20:28:50.555Z,12.26
2019-02-25T20:29:49.657Z,12.19
2019-02-25T20:30:51.402Z,12.16
2019-02-25T20:31:50.200Z,12.15
2019-02-25T20:32:49.677Z,12.25
2019-02-25T20:33:50.859Z,12.18
2019-02-25T20:34:50.608Z,12.23
2019-02-25T20:35:51.694Z,12.25
2019-02-25T20:36:50.484Z,12.13
2019-02-25T20:37:51.492Z,12.03
2019-02-25T20:38:49.739Z,12.04
2019-02-25T20:39:49.736Z,11.96
2019-02-25T20:40:51.188Z,11.93
2019-02-25T20:41:50.708Z,11.96
2019-02-25T20:42:51.239Z,11.88
2019-02-25T20:43:53.962Z,11.94
2019-02-25T20:44:52.919Z,11.98
2019-02-25T20:45:52.190Z,11.93
2019-02-25T20:46:52.630Z,12.03
2019-02-25T20:47:50.037Z,11.94
2019-02-25T20:48:50.738Z,11.81
2019-02-25T20:49:53.714Z,11.81
2019-02-25T20:50:49.824Z,11.77
2019-02-25T20:51:50.529Z,11.74
2019-02-25T20:52:49.850Z,11.67
2019-02-25T20:53:50.785Z,11.62
2019-02-25T20:54:49.856Z,11.64
2019-02-25T20:55:50.682Z,11.64
2019-02-25T20:56:51.191Z,11.59
2019-02-25T20:57:49.865Z,11.51
2019-02-25T20:58:49.881Z,11.57
2019-02-25T20:59:51.001Z,11.56
2019-02-25T21:00:50.892Z,11.46
2019-02-25T21:01:51.096Z,11.45
2019-02-25T21:02:49.923Z,11.53
2019-02-25T21:03:50.464Z,11.59
2019-02-25T21:04:51.881Z,11.48
2019-02-25T21:05:49.928Z,11.63
2019-02-25T21:06:49.945Z,11.70
2019-02-25T21:07:50.443Z,11.66
2019-02-25T21:08:49.959Z,11.67
2019-02-25T21:09:50.120Z,11.70
2019-02-25T21:10:49.988Z,11.75
2019-02-25T21:11:49.985Z,11.74
2019-02-25T21:12:50.857Z,11.78
2019-02-25T21:13:50.002Z,11.75
2019-02-25T21:14:50.033Z,11.78
2019-02-25T21:15:50.019Z,11.67